createdAt,value
2019-05-28T00:10:46.957Z,44.40
2019-05-28T00:13:33.454Z,44.40
2019-05-28T00:16:19.951Z,44.40
2019-05-28T00:19:06.204Z,44.50
2019-05-28T00:21:53.555Z,44.50
2019-05-28T00:24:39.767Z,44.60
2019-05-28T00:27:26.260Z,45.30
2019-05-28T00:30:19.819Z,44.60
2019-05-28T00:33:01.264Z,44.60
2019-05-28T00:35:47.660Z,44.80
2019-05-28T00:38:34.034Z,44.80
2019-05-28T00:41:20.410Z,44.90
2019-05-28T00:44:06.598Z,45.00
2019-05-28T00:46:52.962Z,45.10
2019-05-28T00:49:39.323Z,45.10
2019-05-28T00:52:25.651Z,45.10
2019-05-28T00:55:12.775Z,45.10
2019-05-28T00:57:59.779Z,45.10
2019-05-28T01:00:48.849Z,45.10
2019-05-28T01:03:35.232Z,45.10
2019-05-28T01:06:21.497Z,45.10
2019-05-28T01:09:08.090Z,45.30
2019-05-28T01:11:54.329Z,45.30
2019-05-28T01:14:40.614Z,45.20
2019-05-28T01:17:27.007Z,45.30
2019-05-28T01:20:15.775Z,45.30
2019-05-28T01:23:02.537Z,45.30
2019-05-28T01:25:48.683Z,45.30
2019-05-28T01:28:35.068Z,45.20
2019-05-28T01:31:21.531Z,45.30
2019-05-28T01:34:07.711Z,45.30
2019-05-28T01:36:54.350Z,45.30
2019-05-28T01:39:40.603Z,45.40
2019-05-28T01:42:27.052Z,45.30
2019-05-28T01:45:14.007Z,45.20
2019-05-28T01:48:00.060Z,45.20
2019-05-28T01:50:46.477Z,45.10
2019-05-28T01:53:32.901Z,45.10
2019-05-28T01:56:19.297Z,45.20
2019-05-28T01:59:07.504Z,45.10
2019-05-28T02:01:54.004Z,45.30
2019-05-28T02:04:40.323Z,45.30
2019-05-28T02:07:26.512Z,45.20
2019-05-28T02:10:13.199Z,45.20
2019-05-28T02:13:00.338Z,45.30
2019-05-28T02:15:46.555Z,45.30
2019-05-28T02:18:32.920Z,45.50
2019-05-28T02:21:20.242Z,45.40
2019-05-28T02:24:06.456Z,45.40
2019-05-28T02:26:53.037Z,45.50
2019-05-28T02:29:39.116Z,45.50
2019-05-28T02:32:25.468Z,45.50
2019-05-28T02:35:13.864Z,45.70
2019-05-28T02:38:00.260Z,45.60
2019-05-28T02:40:46.500Z,45.70
2019-05-28T02:43:33.012Z,45.60
2019-05-28T02:46:19.259Z,45.70
2019-05-28T02:49:05.643Z,45.70
2019-05-28T02:51:53.236Z,45.90
2019-05-28T02:54:39.840Z,45.90
2019-05-28T02:57:28.302Z,45.90
2019-05-28T03:00:15.564Z,45.80
2019-05-28T03:03:03.742Z,45.90
2019-05-28T03:05:52.079Z,45.90
2019-05-28T03:08:38.379Z,46.10
2019-05-28T03:11:24.990Z,46.10
2019-05-28T03:14:11.152Z,46.20
2019-05-28T03:17:02.346Z,46.30
2019-05-28T03:19:48.966Z,46.40
2019-05-28T03:22:36.910Z,46.50
2019-05-28T03:25:23.782Z,46.70
2019-05-28T03:28:10.147Z,46.70
2019-05-28T03:30:56.403Z,46.70
2019-05-28T03:33:42.875Z,46.90
2019-05-28T03:36:31.374Z,47.00
2019-05-28T03:39:17.912Z,47.00
2019-05-28T03:42:04.104Z,47.10
2019-05-28T03:44:50.533Z,47.20
2019-05-28T03:47:36.905Z,47.20
2019-05-28T03:50:23.084Z,47.30
2019-05-28T03:53:09.452Z,47.30
2019-05-28T03:55:55.902Z,47.60
2019-05-28T03:58:43.177Z,47.50
2019-05-28T04:01:29.609Z,47.70
2019-05-28T04:04:15.936Z,47.70
2019-05-28T04:07:02.301Z,47.90
2019-05-28T04:09:48.596Z,47.90
2019-05-28T04:12:34.998Z,48.00
2019-05-28T04:15:21.390Z,48.00
2019-05-28T04:18:07.754Z,48.10
2019-05-28T04:20:54.198Z,48.10
2019-05-28T04:23:41.686Z,48.10
2019-05-28T04:26:28.369Z,48.30
2019-05-28T04:29:14.641Z,48.40
2019-05-28T04:32:01.029Z,48.50
2019-05-28T04:34:47.330Z,48.60
2019-05-28T04:37:33.744Z,48.70
2019-05-28T04:40:20.117Z,48.70
2019-05-28T04:43:06.494Z,48.70
2019-05-28T04:45:52.893Z,48.70
2019-05-28T04:48:39.192Z,48.90
2019-05-28T04:51:25.711Z,49.10
2019-05-28T04:54:12.037Z,49.10
2019-05-28T04:56:58.304Z,49.00
2019-05-28T04:59:44.713Z,49.00
2019-05-28T05:02:31.119Z,49.00
2019-05-28T05:05:18.212Z,49.00
2019-05-28T05:08:04.832Z,48.90
2019-05-28T05:10:51.295Z,49.00
2019-05-28T05:13:37.411Z,48.90
2019-05-28T05:16:24.711Z,49.00
2019-05-28T05:19:11.033Z,48.90
2019-05-28T05:22:02.426Z,49.00
2019-05-28T05:24:48.558Z,49.00
2019-05-28T05:27:34.920Z,49.10
2019-05-28T05:30:21.097Z,49.20
2019-05-28T05:33:19.871Z,49.20
2019-05-28T05:35:56.020Z,49.20
2019-05-28T05:38:42.267Z,49.20
2019-05-28T05:41:28.841Z,49.30
2019-05-28T05:44:15.141Z,49.30
2019-05-28T05:47:01.445Z,49.30
2019-05-28T05:49:47.643Z,49.40
2019-05-28T05:52:34.328Z,49.40
2019-05-28T05:55:20.624Z,49.50
2019-05-28T05:58:06.991Z,49.50
2019-05-28T06:00:53.507Z,49.60
2019-05-28T06:03:41.594Z,49.70
2019-05-28T06:06:28.053Z,49.70
2019-05-28T06:09:14.661Z,49.80
2019-05-28T06:12:00.924Z,49.90
2019-05-28T06:14:47.313Z,50.50
2019-05-28T06:17:33.734Z,49.80
2019-05-28T06:20:20.018Z,49.90
2019-05-28T06:23:06.403Z,49.90
2019-05-28T06:25:54.211Z,50.00
2019-05-28T06:28:40.540Z,50.00
2019-05-28T06:31:26.978Z,50.00
2019-05-28T06:34:13.440Z,50.00
2019-05-28T06:36:59.677Z,49.90
2019-05-28T06:39:46.129Z,50.10
2019-05-28T06:42:38.134Z,50.10
2019-05-28T06:45:21.592Z,50.20
2019-05-28T06:48:08.121Z,50.20
2019-05-28T06:50:54.600Z,50.40
2019-05-28T06:53:40.750Z,50.40
2019-05-28T06:56:27.221Z,50.40
2019-05-28T06:59:13.756Z,50.60
2019-05-28T07:02:00.173Z,50.50
2019-05-28T07:04:47.430Z,50.50
2019-05-28T07:07:33.931Z,50.60
2019-05-28T07:10:20.674Z,50.50
2019-05-28T07:13:07.295Z,50.50
2019-05-28T07:15:53.642Z,50.60
2019-05-28T07:18:39.865Z,50.70
2019-05-28T07:21:26.201Z,50.60
2019-05-28T07:24:12.746Z,50.80
2019-05-28T07:26:59.072Z,50.60
2019-05-28T07:29:45.431Z,50.40
2019-05-28T07:32:31.769Z,50.30
2019-05-28T07:35:18.193Z,50.40
2019-05-28T07:38:04.495Z,50.10
2019-05-28T07:40:50.733Z,50.50
2019-05-28T07:43:37.178Z,50.40
2019-05-28T07:46:23.501Z,50.40
2019-05-28T07:49:09.799Z,50.50
2019-05-28T07:51:56.110Z,50.40
2019-05-28T07:54:42.753Z,50.60
2019-05-28T07:57:28.913Z,50.50
2019-05-28T08:00:17.668Z,50.50
2019-05-28T08:03:04.918Z,50.50
2019-05-28T08:05:51.729Z,50.40
2019-05-28T08:08:37.816Z,50.60
2019-05-28T08:11:24.434Z,50.40
2019-05-28T08:14:10.667Z,50.40
2019-05-28T08:16:57.122Z,50.30
2019-05-28T08:19:43.538Z,50.30
2019-05-28T08:22:41.816Z,50.30
2019-05-28T08:25:27.784Z,50.70
2019-05-28T08:28:19.294Z,50.30
2019-05-28T08:31:11.942Z,50.30
2019-05-28T08:33:44.342Z,50.40
2019-05-28T08:36:30.632Z,50.40
2019-05-28T08:39:17.008Z,50.40
2019-05-28T08:42:03.521Z,50.40
2019-05-28T08:44:49.723Z,50.30
2019-05-28T08:47:36.288Z,50.40
2019-05-28T08:50:33.782Z,50.40
2019-05-28T08:53:10.979Z,50.40
2019-05-28T08:55:57.295Z,50.40
2019-05-28T08:58:43.683Z,50.60
2019-05-28T09:01:30.102Z,50.40
2019-05-28T09:04:16.684Z,50.50
2019-05-28T09:07:03.128Z,50.40
2019-05-28T09:09:49.297Z,50.30
2019-05-28T09:12:35.892Z,50.30
2019-05-28T09:15:22.076Z,50.30
2019-05-28T09:18:08.423Z,50.30
2019-05-28T09:20:54.988Z,50.40
2019-05-28T09:23:41.756Z,50.30
2019-05-28T09:26:28.128Z,50.30
2019-05-28T09:29:14.517Z,50.30
2019-05-28T09:32:00.703Z,50.20
2019-05-28T09:34:47.025Z,50.10
2019-05-28T09:37:33.477Z,50.10
2019-05-28T09:40:20.269Z,50.10
2019-05-28T09:43:06.756Z,50.00
2019-05-28T09:45:53.332Z,50.10
2019-05-28T09:48:39.577Z,50.30
2019-05-28T09:51:25.953Z,50.30
2019-05-28T09:54:12.524Z,50.20
2019-05-28T09:56:59.119Z,50.20
2019-05-28T09:59:45.678Z,50.20
2019-05-28T10:02:33.256Z,50.20
2019-05-28T10:05:20.911Z,50.20
2019-05-28T10:08:07.229Z,50.20
2019-05-28T10:10:53.733Z,50.20
2019-05-28T10:13:41.853Z,50.20
2019-05-28T10:16:28.436Z,50.30
2019-05-28T10:19:14.740Z,50.40
2019-05-28T10:22:00.959Z,50.40
2019-05-28T10:24:47.144Z,50.30
2019-05-28T10:27:33.604Z,50.20
2019-05-28T10:30:20.784Z,50.20
2019-05-28T10:33:07.068Z,50.30
2019-05-28T10:35:53.595Z,50.30
2019-05-28T10:38:39.921Z,50.30
2019-05-28T10:41:26.495Z,50.20
2019-05-28T10:44:12.982Z,50.30
2019-05-28T10:46:59.266Z,50.20
2019-05-28T10:49:45.618Z,50.30
2019-05-28T10:52:32.073Z,50.40
2019-05-28T10:55:18.414Z,50.40
2019-05-28T10:58:04.738Z,50.30
2019-05-28T11:00:50.974Z,50.30
2019-05-28T11:03:37.235Z,50.20
2019-05-28T11:06:23.890Z,50.30
2019-05-28T11:09:10.200Z,50.20
2019-05-28T11:11:56.569Z,50.10
2019-05-28T11:14:43.107Z,50.10
2019-05-28T11:17:29.479Z,50.10
2019-05-28T11:20:17.063Z,50.10
2019-05-28T11:23:03.461Z,50.00
2019-05-28T11:25:50.053Z,50.00
2019-05-28T11:28:36.467Z,50.00
2019-05-28T11:31:23.057Z,50.00
2019-05-28T11:34:09.172Z,50.00
2019-05-28T11:37:09.003Z,50.10
2019-05-28T11:39:43.864Z,50.10
2019-05-28T11:42:30.198Z,50.10
2019-05-28T11:45:18.824Z,50.20
2019-05-28T11:48:05.295Z,50.20
2019-05-28T11:50:52.069Z,50.30
2019-05-28T11:53:38.384Z,50.10
2019-05-28T11:56:24.997Z,50.10
2019-05-28T11:59:11.228Z,50.00
2019-05-28T12:01:57.631Z,50.00
2019-05-28T12:04:43.968Z,49.90
2019-05-28T12:07:30.341Z,49.80
2019-05-28T12:10:18.621Z,49.80
2019-05-28T12:13:05.290Z,49.80
2019-05-28T12:15:51.637Z,49.80
2019-05-28T12:18:38.057Z,49.70
2019-05-28T12:21:24.453Z,49.70
2019-05-28T12:24:10.990Z,49.60
2019-05-28T12:26:57.386Z,49.50
2019-05-28T12:29:52.022Z,49.40
2019-05-28T12:32:32.264Z,49.50
2019-05-28T12:35:28.380Z,49.30
2019-05-28T12:38:08.021Z,49.30
2019-05-28T12:40:54.615Z,49.10
2019-05-28T12:43:41.332Z,49.00
2019-05-28T12:46:27.628Z,49.10
2019-05-28T12:49:13.942Z,49.00
2019-05-28T12:52:00.212Z,49.00
2019-05-28T12:54:46.518Z,48.80
2019-05-28T12:57:33.063Z,48.80
2019-05-28T13:00:20.253Z,48.70
2019-05-28T13:03:06.775Z,48.60
2019-05-28T13:05:53.123Z,48.50
2019-05-28T13:08:39.308Z,48.60
2019-05-28T13:11:25.746Z,48.50
2019-05-28T13:14:13.410Z,48.40
2019-05-28T13:16:59.548Z,48.20
2019-05-28T13:19:45.788Z,48.00
2019-05-28T13:22:32.400Z,47.90
2019-05-28T13:25:18.775Z,47.80
2019-05-28T13:28:05.073Z,47.70
2019-05-28T13:30:51.333Z,47.70
2019-05-28T13:33:37.793Z,47.70
2019-05-28T13:36:24.126Z,47.50
2019-05-28T13:39:10.666Z,47.30
2019-05-28T13:41:56.834Z,47.00
2019-05-28T13:44:43.390Z,46.90
2019-05-28T13:47:33.968Z,46.60
2019-05-28T13:50:18.697Z,46.30
2019-05-28T13:53:04.922Z,46.40
2019-05-28T13:55:51.340Z,46.40
2019-05-28T13:58:37.912Z,46.50
2019-05-28T14:01:25.780Z,46.40
2019-05-28T14:04:12.626Z,46.20
2019-05-28T14:06:58.867Z,46.00
2019-05-28T14:09:45.285Z,46.00
2019-05-28T14:12:31.681Z,46.20
2019-05-28T14:15:18.775Z,45.90
2019-05-28T14:18:05.843Z,45.80
2019-05-28T14:20:52.519Z,45.70
2019-05-28T14:23:38.913Z,45.70
2019-05-28T14:26:25.561Z,45.60
2019-05-28T14:29:12.193Z,45.60
2019-05-28T14:31:58.377Z,45.60
2019-05-28T14:34:44.834Z,45.70
2019-05-28T14:37:31.338Z,45.80
2019-05-28T14:40:17.857Z,45.90
2019-05-28T14:43:04.428Z,45.90
2019-05-28T14:45:51.043Z,46.10
2019-05-28T14:48:37.327Z,46.00
2019-05-28T14:51:23.721Z,46.00
2019-05-28T14:54:10.107Z,46.00
2019-05-28T14:56:56.463Z,46.00
2019-05-28T14:59:42.855Z,45.90
2019-05-28T15:02:29.361Z,45.70
2019-05-28T15:05:15.761Z,45.60
2019-05-28T15:08:02.189Z,45.50
2019-05-28T15:10:48.540Z,45.60
2019-05-28T15:13:35.792Z,45.70
2019-05-28T15:16:22.268Z,45.90
2019-05-28T15:19:08.451Z,45.90
2019-05-28T15:21:54.831Z,46.20
2019-05-28T15:24:41.368Z,46.30
2019-05-28T15:27:27.719Z,46.30
2019-05-28T15:30:14.950Z,46.20
2019-05-28T15:33:01.486Z,46.00
2019-05-28T15:35:47.712Z,46.00
2019-05-28T15:38:33.897Z,45.90
2019-05-28T15:41:20.468Z,45.70
2019-05-28T15:44:06.568Z,45.80
2019-05-28T15:46:53.382Z,45.90
2019-05-28T15:49:39.914Z,46.00
2019-05-28T15:52:26.369Z,46.00
2019-05-28T15:55:12.678Z,46.00
2019-05-28T15:57:59.044Z,45.90
2019-05-28T16:00:45.297Z,46.00
2019-05-28T16:03:31.719Z,46.00
2019-05-28T16:06:17.977Z,45.90
2019-05-28T16:09:06.736Z,45.80
2019-05-28T16:11:52.965Z,45.60
2019-05-28T16:14:39.312Z,44.90
2019-05-28T16:17:25.866Z,44.90
2019-05-28T16:20:14.382Z,44.80
2019-05-28T16:23:00.684Z,45.00
2019-05-28T16:25:46.963Z,45.20
2019-05-28T16:28:33.341Z,45.40
2019-05-28T16:31:19.818Z,45.50
2019-05-28T16:34:06.123Z,45.60
2019-05-28T16:36:52.484Z,45.60
2019-05-28T16:39:38.918Z,45.60
2019-05-28T16:42:25.224Z,45.70
2019-05-28T16:45:13.294Z,45.70
2019-05-28T16:47:59.890Z,45.80
2019-05-28T16:50:46.120Z,45.80
2019-05-28T16:53:32.565Z,45.90
2019-05-28T16:56:19.034Z,45.90
2019-05-28T16:59:05.433Z,46.00
2019-05-28T17:01:51.796Z,45.90
2019-05-28T17:04:38.066Z,46.00
2019-05-28T17:07:24.385Z,46.00
2019-05-28T17:10:11.206Z,45.90
2019-05-28T17:12:57.855Z,45.80
2019-05-28T17:15:44.691Z,45.80
2019-05-28T17:18:31.044Z,45.80
2019-05-28T17:21:17.772Z,45.90
2019-05-28T17:24:04.248Z,45.90
2019-05-28T17:26:50.506Z,45.90
2019-05-28T17:29:36.999Z,46.00
2019-05-28T17:32:23.232Z,46.20
2019-05-28T17:35:10.275Z,46.30
2019-05-28T17:37:56.461Z,46.30
2019-05-28T17:40:48.495Z,46.50
2019-05-28T17:43:31.372Z,46.50
2019-05-28T17:46:17.855Z,46.50
2019-05-28T17:49:03.944Z,46.50
2019-05-28T17:51:51.412Z,46.60
2019-05-28T17:54:38.820Z,46.70
2019-05-28T17:57:25.831Z,46.70
2019-05-28T18:00:12.339Z,46.80
2019-05-28T18:02:58.612Z,46.80
2019-05-28T18:05:45.109Z,46.70
2019-05-28T18:08:31.199Z,46.70
2019-05-28T18:11:17.634Z,46.60
2019-05-28T18:14:04.000Z,46.60
2019-05-28T18:16:50.366Z,46.70
2019-05-28T18:19:36.805Z,46.60
2019-05-28T18:22:22.997Z,46.70
2019-05-28T18:25:09.483Z,46.80
2019-05-28T18:27:55.752Z,46.80
2019-05-28T18:30:42.069Z,46.80
2019-05-28T18:33:28.579Z,46.90
2019-05-28T18:36:14.932Z,46.90
2019-05-28T18:39:01.340Z,47.50
2019-05-28T18:41:49.787Z,46.90
2019-05-28T18:44:36.213Z,46.90
2019-05-28T18:47:22.478Z,46.80
2019-05-28T18:50:09.457Z,46.90
2019-05-28T18:52:55.874Z,46.80
2019-05-28T18:55:42.242Z,46.90
2019-05-28T18:58:28.915Z,46.90
2019-05-28T19:01:15.470Z,47.00
2019-05-28T19:04:01.677Z,47.00
2019-05-28T19:06:48.113Z,47.20
2019-05-28T19:09:34.517Z,47.30
2019-05-28T19:12:20.828Z,47.20
2019-05-28T19:15:08.471Z,47.10
2019-05-28T19:17:55.116Z,47.20
2019-05-28T19:20:41.308Z,47.20
2019-05-28T19:23:27.739Z,47.20
2019-05-28T19:26:13.972Z,47.20
2019-05-28T19:29:00.494Z,47.30
2019-05-28T19:31:47.108Z,47.30
2019-05-28T19:34:34.120Z,47.50
2019-05-28T19:37:21.695Z,47.50
2019-05-28T19:40:08.815Z,47.60
2019-05-28T19:42:54.938Z,47.70
2019-05-28T19:45:41.474Z,47.80
2019-05-28T19:48:27.808Z,47.90
2019-05-28T19:51:14.259Z,48.00
2019-05-28T19:54:00.707Z,47.90
2019-05-28T19:56:47.372Z,47.90
2019-05-28T19:59:48.791Z,48.00
2019-05-28T20:02:35.152Z,47.80
2019-05-28T20:05:21.722Z,48.30
2019-05-28T20:08:08.488Z,48.50
2019-05-28T20:10:57.855Z,48.50
2019-05-28T20:13:44.440Z,48.70
2019-05-28T20:16:30.477Z,48.80
2019-05-28T20:19:16.856Z,48.90
2019-05-28T20:22:03.802Z,49.00
2019-05-28T20:24:52.845Z,49.10
2019-05-28T20:27:39.128Z,49.00
2019-05-28T20:30:25.598Z,49.10
2019-05-28T20:33:11.812Z,49.20
2019-05-28T20:35:58.065Z,48.70
2019-05-28T20:38:44.721Z,49.30
2019-05-28T20:41:31.287Z,49.30
2019-05-28T20:44:17.783Z,49.30
2019-05-28T20:47:04.990Z,49.40
2019-05-28T20:49:51.843Z,49.50
2019-05-28T20:52:38.177Z,49.60
2019-05-28T20:55:24.427Z,49.60
2019-05-28T20:58:10.633Z,49.60
2019-05-28T21:00:57.861Z,49.60
2019-05-28T21:03:44.374Z,49.60
2019-05-28T21:06:30.804Z,49.80
2019-05-28T21:09:17.277Z,49.60
2019-05-28T21:12:04.362Z,49.60
2019-05-28T21:14:51.205Z,49.70
2019-05-28T21:17:37.955Z,49.70
2019-05-28T21:20:24.364Z,49.70
2019-05-28T21:23:10.703Z,49.70
2019-05-28T21:25:58.341Z,49.80
2019-05-28T21:28:45.120Z,49.90
2019-05-28T21:31:33.263Z,50.00
2019-05-28T21:34:19.723Z,49.90
2019-05-28T21:37:08.031Z,49.90
2019-05-28T21:39:55.976Z,49.90
2019-05-28T21:42:56.515Z,49.90
2019-05-28T21:45:30.917Z,50.00
2019-05-28T21:48:17.661Z,50.10
2019-05-28T21:51:05.224Z,50.10
2019-05-28T21:53:52.760Z,50.20
2019-05-28T21:56:39.117Z,50.20
2019-05-28T21:59:25.718Z,50.20
2019-05-28T22:02:13.284Z,50.10
2019-05-28T22:05:05.714Z,50.10
2019-05-28T22:07:48.349Z,50.30
2019-05-28T22:10:34.528Z,50.40
2019-05-28T22:13:22.574Z,50.30
2019-05-28T22:16:09.420Z,50.30
2019-05-28T22:18:56.259Z,50.30
2019-05-28T22:21:42.992Z,50.30
2019-05-28T22:24:29.653Z,50.30
2019-05-28T22:27:16.113Z,50.40
2019-05-28T22:30:04.745Z,50.30
2019-05-28T22:32:52.245Z,50.30
2019-05-28T22:35:38.936Z,50.40
2019-05-28T22:38:25.232Z,50.40
2019-05-28T22:41:11.850Z,50.50
2019-05-28T22:43:58.741Z,50.70
2019-05-28T22:46:45.250Z,50.60
2019-05-28T22:49:31.881Z,50.90
2019-05-28T22:52:18.456Z,50.60
2019-05-28T22:55:05.972Z,50.60
2019-05-28T22:57:52.964Z,50.60
2019-05-28T23:00:39.499Z,50.50
2019-05-28T23:03:25.898Z,50.50
2019-05-28T23:06:11.975Z,50.40
2019-05-28T23:08:59.294Z,50.40
2019-05-28T23:11:45.722Z,50.40
2019-05-28T23:14:32.079Z,50.40
2019-05-28T23:17:18.571Z,50.40
2019-05-28T23:20:06.708Z,50.50
2019-05-28T23:22:53.313Z,50.40
2019-05-28T23:25:40.637Z,50.60
2019-05-28T23:28:27.077Z,50.70
2019-05-28T23:31:15.805Z,50.70
2019-05-28T23:34:02.480Z,50.70
2019-05-28T23:36:48.957Z,50.80
2019-05-28T23:39:35.652Z,50.90
2019-05-28T23:42:21.973Z,50.90
2019-05-28T23:45:09.888Z,51.00
2019-05-28T23:47:56.713Z,51.00
2019-05-28T23:50:44.400Z,51.00
2019-05-28T23:53:30.785Z,51.20
2019-05-28T23:56:18.021Z,51.30
2019-05-28T23:59:05.648Z,51.20
